Time;durP1;ratioP1;P1;durP2;ratioP2;P2;SDS_P1;SDS_P2;PMS_P1;PMS_P2;Temp;Humidity;BMP_temperature;BMP_pressure;BME280_temperature;BME280_humidity;BME280_pressure;Samples;Min_cycle;Max_cycle;Signal;HPM_P1;HPM_P2
2022/09/27 00:01:53;;;;;;;11.70;6.10;;;21.50;74.30;;;;;;220557;1267;22531;-51
2022/09/27 00:06:56;;;;;;;10.70;6.40;;;21.50;73.90;;;;;;221004;1267;22543;-47
2022/09/27 00:12:00;;;;;;;11.80;7.00;;;21.50;73.80;;;;;;220859;1267;22642;-51
2022/09/27 00:17:04;;;;;;;9.90;6.30;;;21.50;73.80;;;;;;220947;1267;22545;-49
2022/09/27 00:22:10;;;;;;;12.90;6.70;;;21.50;74.00;;;;;;220558;1267;25205;-48
2022/09/27 00:27:14;;;;;;;9.70;6.10;;;21.40;74.00;;;;;;220800;1267;22649;-48
2022/09/27 00:32:17;;;;;;;8.90;5.70;;;21.40;74.00;;;;;;220704;1267;22725;-47
2022/09/27 00:37:21;;;;;;;11.30;6.20;;;21.40;73.90;;;;;;220659;1267;22544;-48
2022/09/27 00:42:24;;;;;;;10.40;5.90;;;21.40;73.80;;;;;;220760;1267;22528;-46
2022/09/27 00:47:46;;;;;;;9.40;6.50;;;21.40;73.70;;;;;;220464;1267;25477;-49
2022/09/27 00:53:01;;;;;;;13.50;7.10;;;21.40;74.00;;;;;;220499;1269;22856;-47
2022/09/27 00:58:06;;;;;;;11.70;6.10;;;21.40;73.60;;;;;;221136;1267;22527;-47
2022/09/27 01:03:22;;;;;;;9.10;6.10;;;21.40;73.80;;;;;;223879;1268;22665;-51
2022/09/27 01:08:29;;;;;;;12.60;5.90;;;21.40;73.40;;;;;;220519;1267;22538;-47
2022/09/27 01:13:55;;;;;;;9.00;5.70;;;21.40;73.50;;;;;;220611;1267;22563;-51
2022/09/27 01:19:24;;;;;;;13.90;7.10;;;21.30;73.60;;;;;;220586;1270;22624;-47
2022/09/27 01:25:07;;;;;;;9.80;5.40;;;21.30;73.50;;;;;;221041;1267;22528;-49
2022/09/27 01:30:35;;;;;;;10.80;6.40;;;21.30;73.40;;;;;;220646;1267;24245;-48
2022/09/27 01:36:20;;;;;;;11.30;5.60;;;21.30;73.40;;;;;;220687;1267;24047;-49
2022/09/27 01:41:35;;;;;;;10.20;5.40;;;21.30;73.90;;;;;;220603;1267;22556;-51
2022/09/27 01:47:17;;;;;;;9.20;5.50;;;21.30;73.40;;;;;;220641;1267;22551;-47
2022/09/27 01:52:58;;;;;;;8.80;6.00;;;21.30;73.50;;;;;;220536;1267;24310;-47
2022/09/27 01:58:20;;;;;;;12.60;5.90;;;21.30;73.40;;;;;;220299;1267;25458;-49
2022/09/27 02:03:33;;;;;;;9.10;5.60;;;21.30;73.30;;;;;;220985;1267;25242;-49
2022/09/27 02:09:09;;;;;;;7.40;5.30;;;21.30;73.20;;;;;;220470;1267;23046;-47
2022/09/27 02:14:48;;;;;;;9.10;5.40;;;21.20;73.20;;;;;;220464;1267;23050;-48
2022/09/27 02:20:14;;;;;;;;;;;21.20;73.10;;;;;;220412;1267;25369;-49
2022/09/27 02:25:53;;;;;;;8.60;5.90;;;21.20;73.40;;;;;;220420;1268;25424;-47
2022/09/27 02:31:07;;;;;;;9.80;5.90;;;21.20;72.70;;;;;;220467;1267;25320;-50
2022/09/27 02:36:16;;;;;;;8.10;5.30;;;21.20;73.10;;;;;;220501;1268;25277;-47
2022/09/27 02:41:21;;;;;;;7.90;5.40;;;21.20;73.10;;;;;;220732;1267;22538;-49
2022/09/27 02:46:52;;;;;;;11.00;5.40;;;21.20;73.00;;;;;;220429;1267;22544;-57
2022/09/27 02:52:12;;;;;;;10.20;5.60;;;21.20;73.40;;;;;;220483;1267;22529;-49
2022/09/27 02:57:48;;;;;;;10.70;4.50;;;21.10;73.60;;;;;;220636;1267;25237;-53
2022/09/27 03:03:15;;;;;;;;;;;21.10;72.70;;;;;;220548;1268;24418;-45
2022/09/27 03:08:25;;;;;;;10.10;5.70;;;21.10;72.90;;;;;;220534;1267;22525;-49
2022/09/27 03:13:30;;;;;;;8.90;5.60;;;21.10;73.00;;;;;;220604;1267;24243;-47
2022/09/27 03:18:35;;;;;;;8.40;5.50;;;21.10;73.00;;;;;;220441;1267;24303;-52
2022/09/27 03:23:58;;;;;;;8.80;5.20;;;21.10;73.00;;;;;;220190;1267;25535;-50
2022/09/27 03:29:03;;;;;;;12.30;5.40;;;21.00;72.90;;;;;;220609;1268;23074;-51
2022/09/27 03:34:07;;;;;;;8.40;5.40;;;21.10;72.90;;;;;;220366;1267;23061;-50
2022/09/27 03:39:10;;;;;;;8.30;5.00;;;21.00;72.90;;;;;;220875;1267;24045;-49
2022/09/27 03:44:14;;;;;;;7.90;5.70;;;21.00;73.10;;;;;;220300;1267;22532;-50
2022/09/27 03:49:18;;;;;;;10.30;5.30;;;21.00;72.80;;;;;;220595;1267;22557;-49
2022/09/27 03:54:22;;;;;;;8.00;5.10;;;21.00;72.70;;;;;;220480;1267;24391;-53
2022/09/27 03:59:25;;;;;;;8.90;4.90;;;21.00;72.60;;;;;;220166;1267;26573;-49
2022/09/27 04:04:48;;;;;;;8.60;5.40;;;21.00;73.00;;;;;;220058;1267;25206;-50
2022/09/27 04:09:51;;;;;;;7.40;4.80;;;20.90;72.60;;;;;;220768;1267;24383;-48
2022/09/27 04:14:55;;;;;;;7.60;5.10;;;20.90;72.50;;;;;;220640;1267;23933;-50
2022/09/27 04:20:18;;;;;;;6.70;4.30;;;21.00;72.20;;;;;;220199;1270;23022;-47
2022/09/27 04:25:25;;;;;;;6.50;4.40;;;20.90;72.50;;;;;;220390;1268;22638;-50
2022/09/27 04:30:30;;;;;;;7.80;5.00;;;20.90;72.60;;;;;;220472;1267;22569;-48
2022/09/27 04:41:09;;;;;;;6.90;4.50;;;20.90;72.50;;;;;;220428;1267;22551;-49
2022/09/27 04:46:14;;;;;;;6.80;4.10;;;20.90;72.50;;;;;;220572;1267;24766;-51
2022/09/27 04:51:18;;;;;;;6.20;4.60;;;20.90;72.50;;;;;;220281;1268;23839;-51
2022/09/27 04:56:23;;;;;;;7.20;4.40;;;20.80;72.50;;;;;;220608;1269;22531;-54
2022/09/27 05:01:29;;;;;;;7.10;4.40;;;20.90;72.60;;;;;;220327;1268;22522;-49
2022/09/27 05:06:37;;;;;;;7.30;4.60;;;20.90;72.50;;;;;;220446;1267;22576;-50
2022/09/27 05:11:52;;;;;;;6.60;4.30;;;20.90;72.20;;;;;;220666;1268;25510;-49
2022/09/27 05:17:02;;;;;;;5.50;4.10;;;21.00;72.40;;;;;;220388;1267;24244;-48
2022/09/27 05:22:25;;;;;;;5.80;4.10;;;21.00;73.00;;;;;;220531;1267;22832;-50
2022/09/27 05:27:29;;;;;;;8.90;4.60;;;21.10;71.90;;;;;;220518;1268;22549;-49
2022/09/27 05:32:35;;;;;;;6.90;4.20;;;21.20;71.90;;;;;;220879;1267;24296;-50
2022/09/27 05:38:00;;;;;;;7.40;4.20;;;21.20;71.30;;;;;;220354;1267;24270;-48
2022/09/27 05:43:05;;;;;;;6.30;3.90;;;21.30;71.40;;;;;;220242;1267;23611;-50
2022/09/27 05:48:11;;;;;;;6.30;4.40;;;21.30;70.70;;;;;;220451;1267;23030;-47
2022/09/27 05:53:22;;;;;;;7.20;4.50;;;21.30;70.80;;;;;;220338;1268;24215;-49
2022/09/27 05:58:27;;;;;;;8.20;3.90;;;21.30;71.00;;;;;;220318;1270;25243;-50
2022/09/27 06:03:44;;;;;;;7.20;4.00;;;21.40;70.80;;;;;;220412;1268;24203;-48
2022/09/27 06:08:56;;;;;;;6.30;4.00;;;21.30;70.60;;;;;;220237;1267;22650;-49
2022/09/27 06:14:05;;;;;;;9.10;4.20;;;21.30;70.90;;;;;;220153;1268;25330;-47
2022/09/27 06:19:16;;;;;;;6.60;4.20;;;21.40;71.10;;;;;;220335;1270;25200;-47
2022/09/27 06:24:20;;;;;;;6.40;4.30;;;21.40;71.30;;;;;;220188;1270;22646;-49
2022/09/27 06:29:23;;;;;;;6.90;4.30;;;21.50;71.30;;;;;;220149;1270;25359;-50
2022/09/27 06:34:33;;;;;;;6.90;4.10;;;21.50;71.90;;;;;;220449;1268;25244;-50
2022/09/27 06:39:38;;;;;;;5.50;4.30;;;21.50;71.20;;;;;;220294;1267;22534;-50
2022/09/27 06:45:11;;;;;;;8.50;4.70;;;21.50;71.60;;;;;;220384;1270;24225;-49
2022/09/27 06:50:36;;;;;;;8.80;4.70;;;21.60;71.90;;;;;;220600;1270;24244;-53
2022/09/27 06:55:40;;;;;;;9.00;4.80;;;21.50;72.50;;;;;;220432;1270;22544;-49
2022/09/27 07:00:52;;;;;;;6.80;4.20;;;21.50;72.40;;;;;;220680;1268;24333;-49
2022/09/27 07:06:22;;;;;;;10.20;4.20;;;21.50;72.20;;;;;;220172;1268;25338;-52
2022/09/27 07:11:49;;;;;;;10.00;4.30;;;21.50;72.50;;;;;;220404;1270;22990;-49
2022/09/27 07:16:52;;;;;;;6.80;4.50;;;21.50;72.00;;;;;;220575;1270;24364;-47
2022/09/27 07:21:56;;;;;;;10.20;4.00;;;21.50;72.20;;;;;;220758;1268;22529;-49
2022/09/27 07:27:00;;;;;;;10.20;4.20;;;21.50;71.70;;;;;;220625;1268;22535;-50
2022/09/27 07:32:04;;;;;;;8.20;4.40;;;21.50;71.80;;;;;;220553;1271;23168;-53
2022/09/27 07:37:07;;;;;;;7.90;4.40;;;21.50;71.80;;;;;;220492;1269;24377;-51
2022/09/27 07:42:15;;;;;;;8.90;4.20;;;21.50;71.90;;;;;;220339;1268;22568;-52
2022/09/27 07:47:24;;;;;;;7.80;4.10;;;21.50;71.50;;;;;;220520;1269;22539;-54
2022/09/27 07:52:50;;;;;;;8.30;4.10;;;21.50;71.50;;;;;;220663;1269;22690;-51
2022/09/27 07:58:12;;;;;;;8.00;4.30;;;21.50;71.80;;;;;;220347;1268;23934;-50
2022/09/27 08:03:16;;;;;;;6.00;3.70;;;21.60;71.80;;;;;;220668;1268;22535;-53
2022/09/27 08:08:23;;;;;;;8.40;4.20;;;21.60;71.70;;;;;;220253;1268;22533;-52
2022/09/27 08:13:28;;;;;;;5.40;3.80;;;21.60;71.60;;;;;;220080;1268;23165;-52
2022/09/27 08:18:32;;;;;;;9.90;4.40;;;21.70;71.80;;;;;;220723;1268;24404;-55
2022/09/27 08:23:54;;;;;;;7.60;4.20;;;21.70;71.50;;;;;;219842;1272;22544;-50
2022/09/27 08:29:03;;;;;;;11.10;4.10;;;21.80;71.50;;;;;;220461;1268;22547;-50
2022/09/27 08:34:12;;;;;;;8.70;4.20;;;21.80;71.40;;;;;;220488;1268;22558;-51
2022/09/27 08:39:16;;;;;;;8.10;4.10;;;21.80;71.40;;;;;;219896;1271;24319;-51
2022/09/27 08:44:43;;;;;;;10.40;4.10;;;21.80;71.30;;;;;;220546;1268;24282;-51
2022/09/27 08:50:00;;;;;;;14.00;4.30;;;21.90;71.10;;;;;;219996;1268;25132;-50
2022/09/27 08:55:23;;;;;;;9.80;4.30;;;21.90;71.90;;;;;;220496;1267;23474;-53
2022/09/27 09:00:28;;;;;;;13.60;4.10;;;21.90;71.90;;;;;;220300;1268;24348;-51
2022/09/27 09:05:38;;;;;;;41.00;4.50;;;21.80;71.30;;;;;;220301;1268;22635;-46
2022/09/27 09:16:47;;;;;;;17.00;4.30;;;21.90;71.90;;;;;;220471;1268;23019;-51
2022/09/27 09:22:05;;;;;;;18.00;4.80;;;21.90;71.70;;;;;;220634;1268;25413;-50
2022/09/27 09:27:14;;;;;;;13.10;3.40;;;21.90;72.30;;;;;;220131;1268;22551;-49
2022/09/27 09:32:55;;;;;;;6.30;3.80;;;21.90;72.00;;;;;;220414;1267;22580;-48
2022/09/27 09:38:04;;;;;;;7.30;3.50;;;21.90;72.20;;;;;;220382;1267;24279;-51
2022/09/27 09:43:44;;;;;;;13.60;3.70;;;21.90;72.20;;;;;;220238;1267;22704;-53
2022/09/27 09:49:03;;;;;;;6.60;4.10;;;21.80;72.30;;;;;;220087;1267;27311;-56
2022/09/27 09:54:18;;;;;;;7.30;4.00;;;21.80;72.10;;;;;;220009;1270;24219;-46
2022/09/27 09:59:29;;;;;;;8.90;4.40;;;21.80;72.60;;;;;;220839;1268;26721;-46
2022/09/27 10:04:33;;;;;;;9.20;3.70;;;21.70;71.90;;;;;;220470;1267;22548;-51
2022/09/27 10:09:38;;;;;;;6.90;3.80;;;21.70;72.00;;;;;;220273;1267;24773;-51
2022/09/27 10:15:23;;;;;;;10.00;4.30;;;21.70;71.80;;;;;;219886;1268;24297;-53
2022/09/27 10:20:46;;;;;;;7.10;4.10;;;21.60;71.90;;;;;;220013;1268;24330;-47
2022/09/27 10:26:04;;;;;;;6.50;3.70;;;21.70;71.80;;;;;;227478;1268;23145;-53
2022/09/27 10:31:17;;;;;;;6.20;3.80;;;21.60;71.90;;;;;;225883;1268;23138;-50
2022/09/27 10:36:35;;;;;;;4.60;3.20;;;21.70;72.10;;;;;;227789;1268;22397;-53
2022/09/27 10:41:46;;;;;;;6.00;3.20;;;21.70;71.70;;;;;;227761;1268;22520;-52
2022/09/27 10:46:59;;;;;;;6.70;3.90;;;21.70;71.80;;;;;;221169;1268;172206;-53
2022/09/27 10:52:24;;;;;;;9.50;3.70;;;21.70;71.80;;;;;;220094;1267;22544;-53
2022/09/27 10:57:29;;;;;;;5.40;3.20;;;21.70;72.00;;;;;;219819;1268;22537;-50
2022/09/27 11:02:36;;;;;;;8.80;3.70;;;21.60;71.70;;;;;;228262;1264;22344;-50
2022/09/27 11:08:26;;;;;;;6.20;3.60;;;21.60;72.00;;;;;;221785;1265;25257;-49
2022/09/27 11:13:34;;;;;;;10.10;3.50;;;21.60;72.10;;;;;;220150;1265;22547;-55
2022/09/27 11:19:15;;;;;;;6.40;3.50;;;21.50;72.00;;;;;;219887;1267;24239;-56
2022/09/27 11:24:48;;;;;;;4.90;3.20;;;21.50;71.90;;;;;;220448;1267;22564;-63
2022/09/27 11:30:07;;;;;;;5.90;3.10;;;21.50;71.70;;;;;;220921;1265;24313;-60
2022/09/27 11:35:55;;;;;;;6.10;3.30;;;21.50;71.70;;;;;;220496;1267;24306;-57
2022/09/27 11:41:32;;;;;;;5.50;3.70;;;21.50;71.60;;;;;;220521;1265;22528;-56
2022/09/27 11:46:40;;;;;;;6.50;3.40;;;21.50;71.60;;;;;;220547;1267;24306;-51
2022/09/27 11:52:09;;;;;;;7.20;3.50;;;21.50;71.70;;;;;;220778;1268;23108;-50
2022/09/27 11:57:30;;;;;;;7.50;3.60;;;21.40;71.50;;;;;;220674;1264;25361;-47
2022/09/27 12:02:50;;;;;;;5.10;3.40;;;21.50;72.70;;;;;;220033;1267;25311;-47
2022/09/27 12:08:04;;;;;;;7.50;4.00;;;21.50;72.00;;;;;;220779;1268;25588;-58
2022/09/27 12:13:11;;;;;;;8.00;3.60;;;21.50;72.00;;;;;;220671;1264;22538;-55
2022/09/27 12:18:19;;;;;;;6.20;3.20;;;21.50;72.00;;;;;;220314;1265;25308;-51
2022/09/27 12:23:33;;;;;;;4.50;3.20;;;21.50;72.10;;;;;;220915;1267;24269;-53
2022/09/27 12:29:14;;;;;;;4.90;3.20;;;21.50;71.80;;;;;;220327;1267;26116;-54
2022/09/27 12:34:24;;;;;;;6.10;3.30;;;21.50;71.90;;;;;;220760;1268;22577;-50
2022/09/27 12:39:58;;;;;;;7.40;3.30;;;21.50;71.70;;;;;;220649;1267;22538;-49
2022/09/27 12:45:17;;;;;;;4.90;3.60;;;21.50;71.60;;;;;;220433;1267;24294;-52
2022/09/27 12:50:35;;;;;;;6.70;3.20;;;21.50;71.50;;;;;;220160;1268;22538;-50
2022/09/27 12:55:54;;;;;;;6.90;3.50;;;21.50;71.50;;;;;;220075;1267;23187;-47
2022/09/27 13:01:18;;;;;;;6.20;3.00;;;21.50;71.70;;;;;;220418;1268;22564;-51
2022/09/27 13:06:22;;;;;;;6.80;3.10;;;21.50;72.00;;;;;;220468;1267;22828;-50
2022/09/27 13:11:56;;;;;;;8.80;3.00;;;21.50;72.10;;;;;;220627;1267;24265;-48
2022/09/27 13:17:03;;;;;;;7.90;3.20;;;21.50;71.90;;;;;;220300;1268;22778;-49
2022/09/27 13:22:37;;;;;;;5.80;3.50;;;21.50;71.70;;;;;;220405;1267;22547;-50
2022/09/27 13:27:58;;;;;;;6.00;3.00;;;21.50;71.50;;;;;;220487;1267;22571;-52
2022/09/27 13:33:08;;;;;;;6.30;3.40;;;21.40;71.60;;;;;;220214;1267;22531;-48
2022/09/27 13:38:24;;;;;;;5.20;3.20;;;21.40;71.30;;;;;;220271;1267;22550;-53
2022/09/27 13:43:57;;;;;;;8.00;3.30;;;21.40;71.40;;;;;;220754;1267;22747;-57
2022/09/27 13:49:28;;;;;;;7.40;3.70;;;21.40;71.50;;;;;;220422;1267;22544;-60
2022/09/27 13:54:58;;;;;;;7.70;3.20;;;21.40;71.50;;;;;;220825;1267;24293;-56
2022/09/27 14:00:13;;;;;;;7.20;3.10;;;21.40;71.40;;;;;;220514;1267;22824;-52
2022/09/27 14:05:33;;;;;;;5.00;2.90;;;21.40;71.50;;;;;;220602;1267;24310;-49
2022/09/27 14:10:43;;;;;;;7.30;3.30;;;21.40;71.60;;;;;;220258;1268;24304;-52
2022/09/27 14:15:53;;;;;;;5.70;2.90;;;21.40;71.50;;;;;;220209;1269;22554;-54
2022/09/27 14:21:18;;;;;;;5.50;3.00;;;21.40;71.40;;;;;;220556;1267;24237;-47
2022/09/27 14:26:43;;;;;;;4.70;3.00;;;21.40;71.50;;;;;;220621;1266;24299;-54
2022/09/27 14:32:24;;;;;;;8.20;3.00;;;21.40;71.50;;;;;;220520;1267;22749;-51
2022/09/27 14:37:37;;;;;;;5.80;2.80;;;21.40;72.10;;;;;;220824;1267;24192;-56
2022/09/27 14:42:47;;;;;;;7.20;3.10;;;21.40;71.70;;;;;;220206;1267;24434;-53
2022/09/27 14:47:51;;;;;;;7.40;3.30;;;21.40;71.50;;;;;;220647;1267;24355;-51
2022/09/27 14:52:58;;;;;;;9.80;3.10;;;21.40;71.70;;;;;;220193;1267;22570;-49
2022/09/27 14:58:17;;;;;;;10.00;2.70;;;21.40;71.70;;;;;;220691;1267;22533;-49
2022/09/27 15:03:56;;;;;;;5.50;2.90;;;21.40;71.90;;;;;;220521;1267;24256;-55
2022/09/27 15:09:03;;;;;;;11.20;3.40;;;21.50;72.40;;;;;;220116;1267;23123;-49
2022/09/27 15:14:20;;;;;;;13.70;4.50;;;21.50;73.40;;;;;;220512;1267;25497;-53
2022/09/27 15:19:33;;;;;;;74.10;21.60;;;21.60;73.80;;;;;;220485;1267;22842;-50
2022/09/27 15:24:47;;;;;;;241.30;78.30;;;21.60;74.10;;;;;;220382;1267;22901;-52
2022/09/27 15:29:55;;;;;;;229.10;77.30;;;21.60;74.00;;;;;;220412;1267;24258;-54
2022/09/27 15:35:09;;;;;;;201.70;69.70;;;21.60;74.80;;;;;;220595;1267;26574;-48
2022/09/27 15:40:42;;;;;;;199.50;70.30;;;21.70;75.50;;;;;;220463;1267;22706;-46
2022/09/27 15:46:23;;;;;;;190.70;70.20;;;21.70;77.20;;;;;;222191;1268;23599;-49
2022/09/27 15:51:39;;;;;;;175.20;66.30;;;21.80;78.30;;;;;;220093;1267;22535;-47
2022/09/27 15:57:03;;;;;;;177.50;61.10;;;21.80;78.70;;;;;;220308;1267;22541;-50
2022/09/27 16:02:16;;;;;;;170.90;66.20;;;21.80;79.10;;;;;;220826;1267;22544;-50
2022/09/27 16:07:26;;;;;;;171.50;65.30;;;21.80;80.70;;;;;;220209;1267;22543;-49
2022/09/27 16:12:33;;;;;;;165.40;62.10;;;21.80;80.00;;;;;;220456;1267;24260;-47
2022/09/27 16:17:42;;;;;;;152.30;56.60;;;21.80;79.40;;;;;;220462;1267;25260;-48
2022/09/27 16:22:46;;;;;;;145.20;55.40;;;21.80;79.00;;;;;;220408;1267;25244;-46
2022/09/27 16:27:52;;;;;;;146.80;55.60;;;21.80;78.60;;;;;;220247;1267;22654;-48
2022/09/27 16:32:58;;;;;;;152.00;55.70;;;21.80;78.90;;;;;;220644;1266;24265;-49
2022/09/27 16:38:04;;;;;;;148.10;55.40;;;21.80;78.40;;;;;;220361;1267;22554;-49
2022/09/27 16:43:08;;;;;;;135.40;53.70;;;21.90;77.90;;;;;;220583;1267;22538;-50
2022/09/27 16:48:15;;;;;;;137.20;55.50;;;21.90;77.60;;;;;;220568;1267;24284;-48
2022/09/27 16:53:19;;;;;;;130.30;52.90;;;22.00;77.10;;;;;;220216;1267;25092;-46
2022/09/27 16:58:23;;;;;;;126.60;53.20;;;21.90;76.80;;;;;;220587;1267;22762;-47
2022/09/27 17:03:27;;;;;;;137.70;52.10;;;21.90;76.90;;;;;;220123;1268;25307;-45
2022/09/27 17:08:33;;;;;;;124.30;50.50;;;21.90;76.70;;;;;;220368;1267;22525;-48
2022/09/27 17:13:42;;;;;;;125.30;52.50;;;21.90;76.40;;;;;;220215;1267;26182;-50
2022/09/27 17:18:47;;;;;;;116.90;49.60;;;21.90;76.50;;;;;;220188;1267;24293;-50
2022/09/27 17:24:04;;;;;;;121.20;49.90;;;21.90;76.10;;;;;;220233;1267;22765;-49
2022/09/27 17:29:12;;;;;;;111.20;46.70;;;21.90;76.30;;;;;;220068;1267;25464;-53
2022/09/27 17:34:16;;;;;;;110.70;47.20;;;21.90;76.50;;;;;;222279;1267;22943;-49
2022/09/27 17:39:21;;;;;;;117.90;45.60;;;21.90;75.70;;;;;;220648;1267;24066;-51
2022/09/27 17:44:28;;;;;;;103.70;46.60;;;21.90;76.00;;;;;;220665;1267;24264;-49
2022/09/27 17:54:56;;;;;;;103.50;44.00;;;21.80;75.90;;;;;;220176;1269;24143;-54
2022/09/27 18:00:04;;;;;;;106.80;43.70;;;21.90;75.80;;;;;;220456;1267;24476;-52
2022/09/27 18:05:17;;;;;;;114.00;44.50;;;21.90;75.80;;;;;;220540;1267;22547;-50
2022/09/27 18:10:28;;;;;;;101.60;44.60;;;21.80;76.10;;;;;;220146;1268;22551;-55
2022/09/27 18:15:36;;;;;;;97.00;40.80;;;21.80;76.20;;;;;;220379;1267;22532;-47
2022/09/27 18:20:42;;;;;;;85.70;40.00;;;21.70;76.00;;;;;;220570;1267;22544;-45
2022/09/27 18:25:53;;;;;;;85.70;40.00;;;21.70;75.80;;;;;;220175;1267;22532;-46
2022/09/27 18:31:07;;;;;;;94.50;39.30;;;21.70;76.80;;;;;;220084;1267;24469;-49
2022/09/27 18:36:20;;;;;;;86.00;38.10;;;21.70;76.50;;;;;;220160;1267;25316;-52
2022/09/27 18:41:28;;;;;;;82.00;39.70;;;21.70;76.30;;;;;;220590;1270;22571;-55
2022/09/27 18:46:34;;;;;;;94.20;39.00;;;21.70;76.70;;;;;;221424;1267;22538;-52
2022/09/27 18:51:43;;;;;;;80.60;36.50;;;21.70;76.80;;;;;;220462;1267;25462;-58
2022/09/27 18:56:51;;;;;;;83.20;34.30;;;21.60;76.20;;;;;;220402;1267;24222;-53
2022/09/27 19:01:57;;;;;;;72.50;33.30;;;21.60;76.10;;;;;;220531;1267;25970;-56
2022/09/27 19:07:04;;;;;;;72.80;36.40;;;21.60;75.20;;;;;;220470;1267;25297;-50
2022/09/27 19:12:40;;;;;;;70.60;33.40;;;21.60;75.30;;;;;;220501;1269;22545;-55
2022/09/27 19:17:53;;;;;;;77.30;32.70;;;21.60;75.00;;;;;;220621;1267;25322;-55
2022/09/27 19:23:04;;;;;;;72.40;31.40;;;21.60;75.10;;;;;;220763;1267;24428;-53
2022/09/27 19:28:15;;;;;;;71.40;32.30;;;21.60;75.40;;;;;;220446;1267;24221;-56
2022/09/27 19:33:26;;;;;;;67.20;30.20;;;21.60;75.80;;;;;;220467;1267;24299;-55
2022/09/27 19:38:42;;;;;;;71.40;31.40;;;21.60;75.50;;;;;;220907;1267;22602;-53
2022/09/27 19:43:56;;;;;;;63.50;30.70;;;21.60;75.40;;;;;;220434;1267;22615;-55
2022/09/27 19:49:02;;;;;;;64.30;31.30;;;21.60;75.90;;;;;;220513;1267;22654;-53
2022/09/27 19:54:11;;;;;;;61.10;29.10;;;21.60;76.10;;;;;;220558;1267;23036;-52
2022/09/27 19:59:23;;;;;;;75.10;32.00;;;21.60;77.10;;;;;;220424;1267;25245;-52
2022/09/27 20:04:35;;;;;;;60.00;26.60;;;21.60;76.80;;;;;;220415;1267;24151;-53
2022/09/27 20:09:39;;;;;;;59.10;29.10;;;21.60;76.20;;;;;;220313;1267;24222;-53
2022/09/27 20:14:43;;;;;;;64.00;28.20;;;21.50;76.00;;;;;;220621;1267;23038;-53
2022/09/27 20:19:51;;;;;;;58.00;27.30;;;21.50;75.40;;;;;;220480;1267;24416;-54
2022/09/27 20:24:57;;;;;;;57.80;25.80;;;21.50;75.60;;;;;;220318;1267;22553;-50
2022/09/27 20:30:06;;;;;;;61.90;27.80;;;21.50;75.70;;;;;;220305;1267;25602;-53
2022/09/27 20:35:16;;;;;;;46.80;21.90;;;21.40;75.30;;;;;;220427;1267;25249;-53
2022/09/27 20:40:22;;;;;;;55.60;25.00;;;21.50;75.70;;;;;;220355;1267;23034;-52
2022/09/27 20:45:28;;;;;;;53.10;23.40;;;21.50;76.80;;;;;;219895;1267;22533;-53
2022/09/27 20:50:33;;;;;;;47.60;23.60;;;21.60;76.10;;;;;;220337;1267;24085;-53
2022/09/27 20:55:37;;;;;;;48.70;23.60;;;21.60;76.10;;;;;;220523;1267;22546;-50
2022/09/27 21:00:45;;;;;;;51.40;23.60;;;21.60;76.00;;;;;;220537;1267;22610;-54
2022/09/27 21:05:57;;;;;;;51.10;22.60;;;21.50;75.90;;;;;;220568;1266;24215;-52
2022/09/27 21:11:20;;;;;;;51.90;23.40;;;21.50;76.10;;;;;;220644;1267;22842;-50
2022/09/27 21:16:26;;;;;;;49.10;22.00;;;21.50;76.10;;;;;;220818;1267;22550;-51
2022/09/27 21:21:31;;;;;;;51.90;21.80;;;21.50;76.10;;;;;;220647;1267;25294;-50
2022/09/27 21:26:34;;;;;;;47.80;24.10;;;21.40;76.20;;;;;;220437;1267;24083;-52
2022/09/27 21:31:38;;;;;;;49.10;23.10;;;21.50;76.40;;;;;;220270;1267;22542;-49
2022/09/27 21:36:42;;;;;;;43.30;20.70;;;21.40;76.00;;;;;;220444;1267;22684;-53
2022/09/27 21:41:45;;;;;;;48.30;20.80;;;21.40;75.90;;;;;;220557;1267;24300;-51
2022/09/27 21:46:50;;;;;;;39.40;20.40;;;21.40;76.00;;;;;;220668;1267;22550;-50
2022/09/27 21:51:54;;;;;;;43.00;20.10;;;21.40;75.90;;;;;;220601;1267;22545;-51
2022/09/27 21:56:57;;;;;;;40.50;21.10;;;21.40;75.80;;;;;;220217;1270;22548;-51
2022/09/27 22:02:01;;;;;;;44.60;20.40;;;21.40;75.90;;;;;;220125;1268;24307;-49
2022/09/27 22:07:05;;;;;;;41.30;20.10;;;21.40;75.90;;;;;;220345;1267;25229;-51
2022/09/27 22:12:11;;;;;;;42.70;19.80;;;21.40;75.80;;;;;;219904;1268;24394;-49
2022/09/27 22:17:14;;;;;;;36.60;18.30;;;21.40;75.50;;;;;;220523;1267;22850;-54
2022/09/27 22:22:21;;;;;;;38.90;19.10;;;21.40;75.50;;;;;;220511;1268;22710;-51
2022/09/27 22:27:25;;;;;;;47.50;21.10;;;21.30;75.50;;;;;;220704;1267;22529;-51
2022/09/27 22:32:31;;;;;;;44.30;21.00;;;21.30;75.60;;;;;;220684;1267;25649;-53
2022/09/27 22:37:37;;;;;;;40.90;19.70;;;21.30;77.60;;;;;;220254;1268;25392;-54
2022/09/27 22:42:45;;;;;;;39.80;20.10;;;21.40;77.90;;;;;;220497;1267;24072;-52
2022/09/27 22:47:52;;;;;;;39.80;20.70;;;21.40;77.80;;;;;;220197;1269;309230;-50
2022/09/27 22:52:58;;;;;;;36.00;20.00;;;21.30;76.90;;;;;;220648;1268;22616;-49
2022/09/27 22:58:02;;;;;;;33.70;18.10;;;21.30;76.60;;;;;;220573;1268;25245;-49
2022/09/27 23:03:05;;;;;;;35.20;18.60;;;21.30;76.40;;;;;;220750;1267;22737;-51
2022/09/27 23:08:09;;;;;;;43.50;18.80;;;21.30;76.20;;;;;;220535;1267;26105;-50
2022/09/27 23:13:12;;;;;;;36.40;17.60;;;21.30;76.30;;;;;;220222;1267;22564;-53
2022/09/27 23:18:18;;;;;;;35.00;18.80;;;21.30;76.20;;;;;;220385;1267;22528;-52
2022/09/27 23:23:23;;;;;;;35.50;17.90;;;21.30;76.10;;;;;;220717;1268;24373;-53
2022/09/27 23:28:30;;;;;;;35.20;17.80;;;21.30;76.00;;;;;;220373;1270;24265;-51
2022/09/27 23:33:39;;;;;;;36.00;18.30;;;21.30;76.10;;;;;;221175;1268;24361;-52
2022/09/27 23:38:44;;;;;;;36.30;18.70;;;21.30;76.10;;;;;;220682;1269;22690;-53
2022/09/27 23:43:48;;;;;;;32.40;18.20;;;21.30;76.10;;;;;;220286;1267;25529;-50
2022/09/27 23:48:52;;;;;;;33.40;17.80;;;21.30;76.10;;;;;;220450;1267;25398;-50
2022/09/27 23:53:56;;;;;;;38.70;18.70;;;21.30;76.60;;;;;;220228;1267;24269;-49
2022/09/27 23:59:00;;;;;;;33.90;18.30;;;21.30;76.40;;;;;;220675;1267;22531;-52
